Terminal Aerodrome Forecast
Issued by NWS Grand Junction, CO

Home | Current Version | Previous Version | Text Only | Print | Product List | Glossary On
Versions: 1 2 3 4 5 6 7 8 9 10 11 12 13 14 15 16 17 18 19 20 21 22 23 24 25
000
FTUS45 KGJT 022115 AAB
TAFGJT
TAF AMD
KGJT 022115Z 0221/0318 24011KT P6SM VCTS SCT100CB SCT150
      TEMPO 0221/0222 VRB15G28KT -TSRA SCT080CB BKN100
     FM030200 09010KT P6SM BKN200
     FM030600 11010KT P6SM SCT200=

USA.gov is the U.S. government's official web portal to all federal, state and local government web resources and services.